createdAt,value
2023-03-04T00:02:05.266Z,78.28
2023-03-04T00:04:31.683Z,77.47
2023-03-04T00:06:58.128Z,76.33
2023-03-04T00:09:24.478Z,76.61
2023-03-04T00:11:50.859Z,76.50
2023-03-04T00:14:17.167Z,76.06
2023-03-04T00:16:43.600Z,76.26
2023-03-04T00:19:10.563Z,76.62
2023-03-04T00:21:36.912Z,75.75
2023-03-04T00:24:03.271Z,75.60
2023-03-04T00:26:29.604Z,75.05
2023-03-04T00:28:55.902Z,74.70
2023-03-04T00:31:22.278Z,76.12
2023-03-04T00:33:48.610Z,74.93
2023-03-04T00:36:14.906Z,74.97
2023-03-04T00:38:41.275Z,75.23
2023-03-04T00:41:07.602Z,75.29
2023-03-04T00:43:33.958Z,75.09
2023-03-04T00:46:00.439Z,74.96
2023-03-04T00:48:26.832Z,75.65
2023-03-04T00:50:53.911Z,75.53
2023-03-04T00:53:20.512Z,75.29
2023-03-04T00:55:46.904Z,75.97
2023-03-04T00:58:13.164Z,75.60
2023-03-04T01:00:39.471Z,75.75
2023-03-04T01:03:05.864Z,75.29
2023-03-04T01:05:34.160Z,75.71
2023-03-04T01:08:00.525Z,76.21
2023-03-04T01:10:26.929Z,76.47
2023-03-04T01:12:53.261Z,75.88
2023-03-04T01:15:19.561Z,76.16
2023-03-04T01:17:46.071Z,76.35
2023-03-04T01:20:12.625Z,75.96
2023-03-04T01:22:38.931Z,76.30
2023-03-04T01:25:05.504Z,75.58
2023-03-04T01:27:31.809Z,74.96
2023-03-04T01:29:58.131Z,74.98
2023-03-04T01:32:24.671Z,75.91
2023-03-04T01:34:50.985Z,75.84
2023-03-04T01:37:17.374Z,75.67
2023-03-04T01:39:43.689Z,75.97
2023-03-04T01:42:16.908Z,75.73
2023-03-04T01:44:43.752Z,75.53
2023-03-04T01:47:10.199Z,76.08
2023-03-04T01:49:36.548Z,76.20
2023-03-04T01:52:02.903Z,76.21
2023-03-04T01:54:29.233Z,76.86
2023-03-04T01:56:56.190Z,75.71
2023-03-04T01:59:23.763Z,75.47
2023-03-04T02:01:51.658Z,76.53
2023-03-04T02:04:19.367Z,75.99
2023-03-04T02:06:46.688Z,75.60
2023-03-04T02:09:14.559Z,75.74
2023-03-04T02:11:40.961Z,76.34
2023-03-04T02:14:07.658Z,75.60
2023-03-04T02:16:33.939Z,75.85
2023-03-04T02:19:00.539Z,76.10
2023-03-04T02:21:31.307Z,76.24
2023-03-04T02:24:15.180Z,76.44
2023-03-04T02:26:43.541Z,75.82
2023-03-04T02:29:14.439Z,75.91
2023-03-04T02:31:41.834Z,76.61
2023-03-04T02:34:13.536Z,76.14
2023-03-04T02:36:40.494Z,76.41
2023-03-04T02:39:15.119Z,75.88
2023-03-04T02:41:41.596Z,76.24
2023-03-04T02:44:31.162Z,75.96
2023-03-04T02:46:57.993Z,76.73
2023-03-04T02:49:25.901Z,75.85
2023-03-04T02:51:53.357Z,76.04
2023-03-04T02:54:21.783Z,75.22
2023-03-04T02:56:52.403Z,75.62
2023-03-04T02:59:19.307Z,75.72
2023-03-04T03:01:45.803Z,75.31
2023-03-04T03:04:12.855Z,74.30
2023-03-04T03:06:39.442Z,75.16
2023-03-04T03:09:06.302Z,75.63
2023-03-04T03:11:32.743Z,74.78
2023-03-04T03:13:59.108Z,75.18
2023-03-04T03:16:25.590Z,75.08
2023-03-04T03:18:51.907Z,75.13
2023-03-04T03:21:18.353Z,75.55
2023-03-04T03:23:44.684Z,74.53
2023-03-04T03:26:10.980Z,75.45
2023-03-04T03:28:37.285Z,74.48
2023-03-04T03:31:03.608Z,74.85
2023-03-04T03:33:29.990Z,74.52
2023-03-04T03:35:56.404Z,74.83
2023-03-04T03:38:22.757Z,74.50
2023-03-04T03:40:49.233Z,74.28
2023-03-04T03:43:15.571Z,75.01
2023-03-04T03:45:41.845Z,74.66
2023-03-04T03:48:08.175Z,74.07
2023-03-04T03:50:34.625Z,74.30
2023-03-04T03:53:00.956Z,75.01
2023-03-04T03:55:28.039Z,73.74
2023-03-04T03:57:54.366Z,74.59
2023-03-04T04:00:21.223Z,74.38
2023-03-04T04:02:47.580Z,74.75
2023-03-04T04:05:14.094Z,74.37
2023-03-04T04:07:41.663Z,74.03
2023-03-04T04:10:08.440Z,74.69
2023-03-04T04:12:34.953Z,75.09
2023-03-04T04:15:01.358Z,74.41
2023-03-04T04:17:27.994Z,73.98
2023-03-04T04:19:54.405Z,74.50
2023-03-04T04:22:20.876Z,74.95
2023-03-04T04:24:47.609Z,74.58
2023-03-04T04:27:14.015Z,75.37
2023-03-04T04:29:40.567Z,74.82
2023-03-04T04:32:07.133Z,74.70
2023-03-04T04:34:33.560Z,74.08
2023-03-04T04:37:00.200Z,74.63
2023-03-04T04:39:26.471Z,74.20
2023-03-04T04:41:52.787Z,74.15
2023-03-04T04:44:19.085Z,74.87
2023-03-04T04:46:45.474Z,75.25
2023-03-04T04:49:11.815Z,74.62
2023-03-04T04:51:38.745Z,74.66
2023-03-04T04:54:05.434Z,74.65
2023-03-04T04:56:32.282Z,74.83
2023-03-04T04:58:59.789Z,75.28
2023-03-04T05:01:26.605Z,75.51
2023-03-04T05:03:55.670Z,75.47
2023-03-04T05:06:22.858Z,76.09
2023-03-04T05:08:49.504Z,75.25
2023-03-04T05:11:16.231Z,76.17
2023-03-04T05:13:42.775Z,75.95
2023-03-04T05:16:09.678Z,76.24
2023-03-04T05:18:36.150Z,75.87
2023-03-04T05:21:03.518Z,75.85
2023-03-04T05:23:30.928Z,76.57
2023-03-04T05:25:57.293Z,75.64
2023-03-04T05:28:24.022Z,75.90
2023-03-04T05:30:50.493Z,76.42
2023-03-04T05:33:17.118Z,77.17
2023-03-04T05:35:43.982Z,76.97
2023-03-04T05:38:11.963Z,76.86
2023-03-04T05:40:38.916Z,77.29
2023-03-04T05:43:05.422Z,77.26
2023-03-04T05:45:31.842Z,77.06
2023-03-04T05:47:58.315Z,78.07
2023-03-04T05:50:24.703Z,77.81
2023-03-04T05:52:51.009Z,77.55
2023-03-04T05:55:17.460Z,77.84
2023-03-04T05:57:44.391Z,78.12
2023-03-04T06:00:11.680Z,78.76
2023-03-04T06:02:38.056Z,78.27
2023-03-04T06:05:04.546Z,77.77
2023-03-04T06:07:30.915Z,78.20
2023-03-04T06:09:57.405Z,78.30
2023-03-04T06:12:23.766Z,79.26
2023-03-04T06:14:50.242Z,78.26
2023-03-04T06:17:16.590Z,78.93
2023-03-04T06:19:43.093Z,78.23
2023-03-04T06:22:09.833Z,78.05
2023-03-04T06:24:36.275Z,77.88
2023-03-04T06:27:02.983Z,77.68
2023-03-04T06:29:29.328Z,77.89
2023-03-04T06:31:55.697Z,76.40
2023-03-04T06:34:22.049Z,77.33
2023-03-04T06:36:48.399Z,77.09
2023-03-04T06:39:14.835Z,76.84
2023-03-04T06:41:41.145Z,76.39
2023-03-04T06:44:08.049Z,76.40
2023-03-04T06:46:35.216Z,76.94
2023-03-04T06:49:02.069Z,77.10
2023-03-04T06:51:28.455Z,76.63
2023-03-04T06:53:54.828Z,76.60
2023-03-04T06:56:21.261Z,77.95
2023-03-04T06:58:47.852Z,78.25
2023-03-04T07:01:17.378Z,79.17
2023-03-04T07:03:43.736Z,78.39
2023-03-04T07:06:14.022Z,79.37
2023-03-04T07:08:40.806Z,79.22
2023-03-04T07:11:07.413Z,79.60
2023-03-04T07:13:35.412Z,80.14
2023-03-04T07:16:01.847Z,79.29
2023-03-04T07:18:28.171Z,79.15
2023-03-04T07:20:54.491Z,78.31
2023-03-04T07:23:20.884Z,79.23
2023-03-04T07:25:48.474Z,78.67
2023-03-04T07:28:14.775Z,78.03
2023-03-04T07:30:41.287Z,77.37
2023-03-04T07:33:07.773Z,77.79
2023-03-04T07:35:34.124Z,77.75
2023-03-04T07:38:00.600Z,78.29
2023-03-04T07:40:26.907Z,76.91
2023-03-04T07:42:54.734Z,77.69
2023-03-04T07:45:21.371Z,77.31
2023-03-04T07:47:47.649Z,77.57
2023-03-04T07:50:15.847Z,76.43
2023-03-04T07:52:45.034Z,76.56
2023-03-04T07:55:12.041Z,77.19
2023-03-04T07:57:39.318Z,76.04
2023-03-04T08:00:05.920Z,76.03
2023-03-04T08:02:32.280Z,75.15
2023-03-04T08:04:58.578Z,74.94
2023-03-04T08:07:24.936Z,74.53
2023-03-04T08:09:51.225Z,73.41
2023-03-04T08:12:17.752Z,72.10
2023-03-04T08:14:45.056Z,70.35
2023-03-04T08:17:11.429Z,70.04
2023-03-04T08:19:37.732Z,69.21
2023-03-04T08:22:04.052Z,67.40
2023-03-04T08:24:30.362Z,67.05
2023-03-04T08:26:56.783Z,65.50
2023-03-04T08:29:24.200Z,65.77
2023-03-04T08:31:51.552Z,66.11
2023-03-04T08:34:19.810Z,65.18
2023-03-04T08:36:46.213Z,65.16
2023-03-04T08:39:13.512Z,64.94
2023-03-04T08:41:39.898Z,64.64
2023-03-04T08:44:08.157Z,63.92
2023-03-04T08:46:34.457Z,64.74
2023-03-04T08:49:00.852Z,63.98
2023-03-04T08:51:27.163Z,62.93
2023-03-04T08:53:53.720Z,63.90
2023-03-04T08:56:20.142Z,63.21
2023-03-04T08:58:46.529Z,62.67
2023-03-04T09:01:13.466Z,62.45
2023-03-04T09:03:40.225Z,62.45
2023-03-04T09:06:07.284Z,62.16
2023-03-04T09:08:33.829Z,62.57
2023-03-04T09:11:00.229Z,62.11
2023-03-04T09:13:28.290Z,61.51
2023-03-04T09:15:54.672Z,61.35
2023-03-04T09:18:21.982Z,61.75
2023-03-04T09:20:48.590Z,61.50
2023-03-04T09:23:14.965Z,61.87
2023-03-04T09:25:42.344Z,61.70
2023-03-04T09:28:08.635Z,61.79
2023-03-04T09:30:34.938Z,62.01
2023-03-04T09:33:01.731Z,60.63
2023-03-04T09:35:29.872Z,61.40
2023-03-04T09:37:56.950Z,62.34
2023-03-04T09:40:25.049Z,61.55
2023-03-04T09:42:52.782Z,60.55
2023-03-04T09:45:21.202Z,61.53
2023-03-04T09:47:49.318Z,61.07
2023-03-04T09:50:15.913Z,59.75
2023-03-04T09:53:02.563Z,60.98
2023-03-04T09:55:33.896Z,60.98
2023-03-04T09:58:06.960Z,61.21
2023-03-04T10:00:40.601Z,60.61
2023-03-04T10:03:09.887Z,59.94
2023-03-04T10:05:42.285Z,60.66
2023-03-04T10:08:23.779Z,61.09
2023-03-04T10:10:52.593Z,60.43
2023-03-04T10:13:23.525Z,61.03
2023-03-04T10:15:51.312Z,59.91
2023-03-04T10:18:50.262Z,60.48
2023-03-04T10:21:26.331Z,60.20
2023-03-04T10:23:54.283Z,60.15
2023-03-04T10:26:21.356Z,60.02
2023-03-04T10:28:48.063Z,60.70
2023-03-04T10:31:29.634Z,59.80
2023-03-04T10:33:56.353Z,59.70
2023-03-04T10:36:31.876Z,59.47
2023-03-04T10:38:58.159Z,59.23
2023-03-04T10:41:27.549Z,59.35
2023-03-04T10:44:01.768Z,58.79
2023-03-04T10:46:28.192Z,59.57
2023-03-04T10:48:55.017Z,59.04
2023-03-04T10:51:23.009Z,59.18
2023-03-04T10:53:51.319Z,59.94
2023-03-04T10:56:46.212Z,59.63
2023-03-04T10:59:31.828Z,61.07
2023-03-04T11:01:59.167Z,59.79
2023-03-04T11:04:26.807Z,59.57
2023-03-04T11:06:53.556Z,59.92
2023-03-04T11:09:24.675Z,60.18
2023-03-04T11:11:52.076Z,59.27
2023-03-04T11:14:51.064Z,58.42
2023-03-04T11:17:17.503Z,58.77
2023-03-04T11:19:46.257Z,59.76
2023-03-04T11:22:15.684Z,58.85
2023-03-04T11:24:43.121Z,58.67
2023-03-04T11:27:18.193Z,57.65
2023-03-04T11:29:58.367Z,58.33
2023-03-04T11:32:27.568Z,58.64
2023-03-04T11:34:59.980Z,57.81
2023-03-04T11:37:31.682Z,56.76
2023-03-04T11:40:04.951Z,58.64
2023-03-04T11:42:34.512Z,57.33
2023-03-04T11:45:00.984Z,57.61
2023-03-04T11:47:42.415Z,57.83
2023-03-04T11:50:11.795Z,56.96
2023-03-04T11:53:16.789Z,57.99
2023-03-04T11:55:43.073Z,57.59
2023-03-04T11:58:11.979Z,57.99
2023-03-04T12:00:43.803Z,57.74
2023-03-04T12:03:13.255Z,57.13
2023-03-04T12:05:58.227Z,57.15
2023-03-04T12:08:24.496Z,57.61
2023-03-04T12:10:50.761Z,58.33
2023-03-04T12:13:30.991Z,58.00
2023-03-04T12:16:00.283Z,57.42
2023-03-04T12:18:40.269Z,57.92
2023-03-04T12:21:06.532Z,57.12
2023-03-04T12:23:44.246Z,56.50
2023-03-04T12:28:56.681Z,58.36
2023-03-04T12:31:32.685Z,58.23
2023-03-04T12:34:14.298Z,58.93
2023-03-04T12:36:40.568Z,58.53
2023-03-04T12:39:22.214Z,58.13
2023-03-04T12:41:54.712Z,57.22
2023-03-04T12:44:21.522Z,57.54
2023-03-04T12:46:47.836Z,57.17
2023-03-04T12:49:46.563Z,56.78
2023-03-04T12:52:31.451Z,56.63
2023-03-04T12:55:00.225Z,58.50
2023-03-04T12:57:31.427Z,57.81
2023-03-04T13:00:03.251Z,57.17
2023-03-04T13:02:35.322Z,58.01
2023-03-04T13:05:04.638Z,58.75
2023-03-04T13:07:30.900Z,58.92
2023-03-04T13:10:23.762Z,58.57
2023-03-04T13:12:57.073Z,58.84
2023-03-04T13:15:31.235Z,59.45
2023-03-04T13:18:16.113Z,59.26
2023-03-04T13:20:42.747Z,59.18
2023-03-04T13:23:09.026Z,59.13
2023-03-04T13:25:48.248Z,57.58
2023-03-04T13:28:21.356Z,57.48
2023-03-04T13:30:55.759Z,57.53
2023-03-04T13:33:22.271Z,56.44
2023-03-04T13:36:25.827Z,56.73
2023-03-04T13:39:10.721Z,57.14
2023-03-04T13:41:50.521Z,57.10
2023-03-04T13:44:37.150Z,56.87
2023-03-04T13:47:16.080Z,55.75
2023-03-04T13:49:42.399Z,56.42
2023-03-04T13:52:27.359Z,55.74
2023-03-04T13:55:13.602Z,56.10
2023-03-04T13:57:48.103Z,56.41
2023-03-04T14:00:15.181Z,57.02
2023-03-04T14:02:41.483Z,56.55
2023-03-04T14:05:11.695Z,57.04
2023-03-04T14:07:38.100Z,57.35
2023-03-04T14:10:05.098Z,57.40
2023-03-04T14:12:48.837Z,58.66
2023-03-04T14:15:31.322Z,58.11
2023-03-04T14:17:58.585Z,57.95
2023-03-04T14:20:32.705Z,59.06
2023-03-04T14:23:00.346Z,57.77
2023-03-04T14:25:28.039Z,58.76
2023-03-04T14:28:14.038Z,59.32
2023-03-04T14:30:43.684Z,58.39
2023-03-04T14:33:19.432Z,58.64
2023-03-04T14:35:47.883Z,58.05
2023-03-04T14:38:29.762Z,59.15
2023-03-04T14:41:00.308Z,58.62
2023-03-04T14:43:27.488Z,58.10
2023-03-04T14:45:55.720Z,58.57
2023-03-04T14:48:31.272Z,58.36
2023-03-04T14:50:58.442Z,58.66
2023-03-04T14:53:26.362Z,58.25
2023-03-04T14:55:57.825Z,57.51
2023-03-04T14:58:28.589Z,57.14
2023-03-04T15:01:04.190Z,57.73
2023-03-04T15:03:31.206Z,57.48
2023-03-04T15:06:06.822Z,57.56
2023-03-04T15:08:37.913Z,58.75
2023-03-04T15:11:05.728Z,58.50
2023-03-04T15:13:42.760Z,57.83
2023-03-04T15:16:10.001Z,58.22
2023-03-04T15:18:36.699Z,58.14
2023-03-04T15:21:04.658Z,58.37
2023-03-04T15:23:32.088Z,57.05
2023-03-04T15:25:59.846Z,57.47
2023-03-04T15:28:27.404Z,57.42
2023-03-04T15:30:54.511Z,56.96
2023-03-04T15:33:21.386Z,57.27
2023-03-04T15:35:59.688Z,58.56
2023-03-04T15:38:26.664Z,57.49
2023-03-04T15:40:54.477Z,57.96
2023-03-04T15:43:21.696Z,57.76
2023-03-04T15:45:48.752Z,57.88
2023-03-04T15:48:16.018Z,57.82
2023-03-04T15:50:48.122Z,57.74
2023-03-04T15:53:17.868Z,58.44
2023-03-04T15:55:45.803Z,57.87
2023-03-04T15:58:13.385Z,57.66
2023-03-04T16:00:39.778Z,58.06
2023-03-04T16:03:06.189Z,58.59
2023-03-04T16:05:35.846Z,58.28
2023-03-04T16:08:02.404Z,58.74
2023-03-04T16:10:32.551Z,58.80
2023-03-04T16:12:59.062Z,57.96
2023-03-04T16:15:26.903Z,58.42
2023-03-04T16:17:54.075Z,58.05
2023-03-04T16:20:22.301Z,57.98
2023-03-04T16:22:51.198Z,57.60
2023-03-04T16:25:17.956Z,58.14
2023-03-04T16:27:44.933Z,58.15
2023-03-04T16:30:15.431Z,58.73
2023-03-04T16:32:42.072Z,57.54
2023-03-04T16:35:09.280Z,58.26
2023-03-04T16:37:35.715Z,58.81
2023-03-04T16:40:04.537Z,58.60
2023-03-04T16:42:30.944Z,58.33
2023-03-04T16:44:57.729Z,58.91
2023-03-04T16:47:24.059Z,58.71
2023-03-04T16:49:50.624Z,58.49
2023-03-04T16:52:27.709Z,58.47
2023-03-04T16:54:54.052Z,59.08
2023-03-04T16:57:20.442Z,59.57
2023-03-04T16:59:47.331Z,59.40
2023-03-04T17:02:14.886Z,58.46
2023-03-04T17:04:41.452Z,59.25
2023-03-04T17:07:07.762Z,59.48
2023-03-04T17:09:34.054Z,59.45
2023-03-04T17:12:00.323Z,60.18
2023-03-04T17:14:26.769Z,59.50
2023-03-04T17:16:53.124Z,59.98
2023-03-04T17:19:19.437Z,59.95
2023-03-04T17:21:45.751Z,61.16
2023-03-04T17:24:12.292Z,60.54
2023-03-04T17:26:39.703Z,60.58
2023-03-04T17:29:06.006Z,60.29
2023-03-04T17:31:32.644Z,60.00
2023-03-04T17:33:58.995Z,60.25
2023-03-04T17:36:25.290Z,60.72
2023-03-04T17:38:52.012Z,60.67
2023-03-04T17:41:18.896Z,60.46
2023-03-04T17:43:46.120Z,61.09
2023-03-04T17:46:13.483Z,60.80
2023-03-04T17:48:39.913Z,61.03
2023-03-04T17:51:06.287Z,60.46
2023-03-04T17:53:33.034Z,60.81
2023-03-04T17:56:00.326Z,60.81
2023-03-04T17:58:27.510Z,61.41
2023-03-04T18:00:56.400Z,61.67
2023-03-04T18:03:22.798Z,61.50
2023-03-04T18:05:49.130Z,61.46
2023-03-04T18:08:15.500Z,61.03
2023-03-04T18:10:41.796Z,61.53
2023-03-04T18:13:08.607Z,61.75
2023-03-04T18:15:34.943Z,61.44
2023-03-04T18:18:01.266Z,62.01
2023-03-04T18:20:27.609Z,61.56
2023-03-04T18:22:54.072Z,61.58
2023-03-04T18:25:21.304Z,61.71
2023-03-04T18:27:47.655Z,61.95
2023-03-04T18:30:17.594Z,62.38
2023-03-04T18:32:51.720Z,62.89
2023-03-04T18:35:19.509Z,62.16
2023-03-04T18:37:45.916Z,61.42
2023-03-04T18:40:12.512Z,62.20
2023-03-04T18:42:39.027Z,61.62
2023-03-04T18:45:05.752Z,61.66
2023-03-04T18:47:33.411Z,61.18
2023-03-04T18:49:59.778Z,61.23
2023-03-04T18:52:26.079Z,61.33
2023-03-04T18:54:52.401Z,61.60
2023-03-04T18:57:18.833Z,60.53
2023-03-04T18:59:50.210Z,61.04
2023-03-04T19:02:24.749Z,61.12
2023-03-04T19:04:52.566Z,60.20
2023-03-04T19:07:18.929Z,60.44
2023-03-04T19:09:45.308Z,59.86
2023-03-04T19:12:12.144Z,60.38
2023-03-04T19:14:38.479Z,60.26
2023-03-04T19:17:04.810Z,59.90
2023-03-04T19:19:31.160Z,59.88
2023-03-04T19:21:58.280Z,60.21
2023-03-04T19:24:24.826Z,60.22
2023-03-04T19:26:51.112Z,60.77
2023-03-04T19:29:17.512Z,59.80
2023-03-04T19:31:43.879Z,60.98
2023-03-04T19:34:11.844Z,60.52
2023-03-04T19:36:38.763Z,60.93
2023-03-04T19:39:05.649Z,62.21
2023-03-04T19:41:32.135Z,62.15
2023-03-04T19:43:58.637Z,62.00
2023-03-04T19:46:25.414Z,61.87
2023-03-04T19:48:51.829Z,62.03
2023-03-04T19:51:19.475Z,63.19
2023-03-04T19:53:46.129Z,62.07
2023-03-04T19:56:13.004Z,61.81
2023-03-04T19:58:39.423Z,63.33
2023-03-04T20:01:05.891Z,63.13
2023-03-04T20:03:32.915Z,63.43
2023-03-04T20:06:03.211Z,63.91
2023-03-04T20:08:29.657Z,64.09
2023-03-04T20:10:55.949Z,64.42
2023-03-04T20:13:22.373Z,64.83
2023-03-04T20:15:48.811Z,65.51
2023-03-04T20:18:15.156Z,65.63
2023-03-04T20:20:41.452Z,65.96
2023-03-04T20:23:09.418Z,66.39
2023-03-04T20:25:35.950Z,66.34
2023-03-04T20:28:02.320Z,67.21
2023-03-04T20:30:28.888Z,66.96
2023-03-04T20:32:55.205Z,67.21
2023-03-04T20:35:21.600Z,67.97
2023-03-04T20:37:48.028Z,68.51
2023-03-04T20:40:14.501Z,67.73
2023-03-04T20:42:40.845Z,67.46
2023-03-04T20:45:07.527Z,67.50
2023-03-04T20:47:34.100Z,67.85
2023-03-04T20:50:00.485Z,67.78
2023-03-04T20:52:26.833Z,66.46
2023-03-04T20:54:53.303Z,67.52
2023-03-04T20:57:20.210Z,67.01
2023-03-04T20:59:46.674Z,66.57
2023-03-04T21:02:14.044Z,66.56
2023-03-04T21:04:40.462Z,67.06
2023-03-04T21:07:06.865Z,66.31
2023-03-04T21:09:33.321Z,65.67
2023-03-04T21:12:00.890Z,65.66
2023-03-04T21:14:31.593Z,65.56
2023-03-04T21:16:59.757Z,65.21
2023-03-04T21:19:30.876Z,65.51
2023-03-04T21:21:58.084Z,65.50
2023-03-04T21:24:25.631Z,65.24
2023-03-04T21:26:52.450Z,64.84
2023-03-04T21:29:19.994Z,64.86
2023-03-04T21:31:47.606Z,65.09
2023-03-04T21:34:25.168Z,65.28
2023-03-04T21:36:51.629Z,65.17
2023-03-04T21:39:19.729Z,63.84
2023-03-04T21:41:46.694Z,64.35
2023-03-04T21:44:22.806Z,64.87
2023-03-04T21:47:00.311Z,64.87
2023-03-04T21:49:27.186Z,64.75
2023-03-04T21:51:53.673Z,64.26
2023-03-04T21:54:20.234Z,63.93
2023-03-04T21:56:46.657Z,64.71
2023-03-04T21:59:14.216Z,64.29
2023-03-04T22:01:41.336Z,64.51
2023-03-04T22:04:07.758Z,64.47
2023-03-04T22:06:34.417Z,65.38
2023-03-04T22:09:01.685Z,65.24
2023-03-04T22:11:28.254Z,64.46
2023-03-04T22:13:55.293Z,64.92
2023-03-04T22:16:21.778Z,64.54
2023-03-04T22:18:48.477Z,64.87
2023-03-04T22:21:15.978Z,64.76
2023-03-04T22:23:42.602Z,65.17
2023-03-04T22:26:13.088Z,64.33
2023-03-04T22:28:39.768Z,64.19
2023-03-04T22:31:17.365Z,63.58
2023-03-04T22:33:44.672Z,64.87
2023-03-04T22:36:11.103Z,64.97
2023-03-04T22:38:37.752Z,64.94
2023-03-04T22:41:05.491Z,64.70
2023-03-04T22:43:31.887Z,66.41
2023-03-04T22:46:00.179Z,65.97
2023-03-04T22:48:26.841Z,66.83
2023-03-04T22:50:53.192Z,67.02
2023-03-04T22:53:19.593Z,66.83
2023-03-04T22:55:45.952Z,67.79
2023-03-04T22:58:12.321Z,68.55
2023-03-04T23:00:38.809Z,68.42
2023-03-04T23:03:06.441Z,68.67
2023-03-04T23:05:32.777Z,69.32
2023-03-04T23:07:59.674Z,70.36
2023-03-04T23:10:26.003Z,70.11
2023-03-04T23:12:52.611Z,71.03
2023-03-04T23:15:19.467Z,72.12
2023-03-04T23:17:46.243Z,72.25
2023-03-04T23:20:14.301Z,71.89
2023-03-04T23:22:40.793Z,73.04
2023-03-04T23:25:07.504Z,73.02
2023-03-04T23:27:33.805Z,72.39
2023-03-04T23:30:00.217Z,72.41
2023-03-04T23:32:26.543Z,73.55
2023-03-04T23:34:54.486Z,72.80
2023-03-04T23:37:21.968Z,72.71
2023-03-04T23:39:48.751Z,73.29
2023-03-04T23:42:15.246Z,72.75
2023-03-04T23:44:42.069Z,73.01
2023-03-04T23:47:08.423Z,72.97
2023-03-04T23:49:34.755Z,72.55
2023-03-04T23:52:01.130Z,72.64
2023-03-04T23:54:27.481Z,72.69
2023-03-04T23:56:53.895Z,72.22
2023-03-04T23:59:20.252Z,72.19
